createdAt,value
2023-06-23T00:02:15.632Z,20.30
2023-06-23T00:05:18.225Z,17.33
2023-06-23T00:08:20.515Z,15.05
2023-06-23T00:14:24.968Z,13.75
2023-06-23T00:17:27.261Z,20.60
2023-06-23T00:20:29.783Z,12.95
2023-06-23T00:23:32.564Z,15.55
2023-06-23T00:26:35.432Z,20.92
2023-06-23T00:29:38.476Z,15.45
2023-06-23T00:32:41.704Z,13.93
2023-06-23T00:35:44.406Z,15.38
2023-06-23T00:38:46.641Z,11.82
2023-06-23T00:41:49.800Z,13.82
2023-06-23T00:44:52.642Z,15.80
2023-06-23T00:47:55.070Z,14.55
2023-06-23T00:50:57.458Z,15.35
2023-06-23T00:57:05.630Z,13.38
2023-06-23T01:00:19.473Z,17.10
2023-06-23T01:03:24.523Z,17.02
2023-06-23T01:06:51.166Z,14.50
2023-06-23T01:10:05.137Z,17.83
2023-06-23T01:13:32.125Z,14.00
2023-06-23T01:16:46.003Z,20.02
2023-06-23T01:20:17.320Z,14.65
2023-06-23T01:23:22.685Z,16.23
2023-06-23T01:26:27.865Z,16.92
2023-06-23T01:29:31.317Z,13.27
2023-06-23T01:32:42.922Z,13.75
2023-06-23T01:35:47.385Z,14.65
2023-06-23T01:38:53.513Z,16.25
2023-06-23T01:42:01.684Z,13.40
2023-06-23T01:45:05.628Z,13.95
2023-06-23T01:48:09.348Z,14.00
2023-06-23T01:51:12.228Z,14.43
2023-06-23T01:54:15.620Z,17.30
2023-06-23T01:57:19.666Z,12.50
2023-06-23T02:00:23.298Z,13.77
2023-06-23T02:03:27.971Z,13.98
2023-06-23T02:06:31.568Z,14.40
2023-06-23T02:09:35.803Z,14.75
2023-06-23T02:12:40.855Z,13.65
2023-06-23T02:15:43.614Z,16.63
2023-06-23T02:18:46.145Z,11.82
2023-06-23T02:21:49.650Z,20.08
2023-06-23T02:24:55.032Z,13.38
2023-06-23T02:27:57.862Z,13.68
2023-06-23T02:31:02.876Z,15.13
2023-06-23T02:34:05.244Z,14.23
2023-06-23T02:37:12.620Z,12.70
2023-06-23T02:40:18.171Z,14.98
2023-06-23T02:43:26.177Z,13.48
2023-06-23T02:46:35.163Z,12.32
2023-06-23T02:49:38.990Z,16.95
2023-06-23T02:52:46.780Z,18.75
2023-06-23T02:55:51.111Z,13.98
2023-06-23T02:58:57.286Z,14.45
2023-06-23T03:01:59.828Z,15.82
2023-06-23T03:05:02.767Z,12.93
2023-06-23T03:08:06.833Z,14.75
2023-06-23T03:11:09.120Z,14.45
2023-06-23T03:14:13.618Z,14.35
2023-06-23T03:20:26.096Z,14.20
2023-06-23T03:23:29.749Z,16.00
2023-06-23T03:26:37.321Z,16.08
2023-06-23T03:29:42.056Z,18.65
2023-06-23T03:32:48.905Z,16.98
2023-06-23T03:35:54.145Z,14.27
2023-06-23T03:39:01.196Z,17.50
2023-06-23T03:42:04.275Z,12.88
2023-06-23T03:45:08.232Z,18.15
2023-06-23T03:48:12.967Z,13.10
2023-06-23T03:51:17.708Z,16.90
2023-06-23T03:54:22.112Z,13.82
2023-06-23T03:57:28.403Z,13.05
2023-06-23T04:00:32.746Z,12.73
2023-06-23T04:03:37.978Z,15.70
2023-06-23T04:06:40.696Z,20.08
2023-06-23T04:09:46.332Z,25.17
2023-06-23T04:12:49.905Z,13.13
2023-06-23T04:15:53.606Z,14.60
2023-06-23T04:18:56.231Z,15.52
2023-06-23T04:21:59.242Z,13.70
2023-06-23T04:25:02.300Z,13.52
2023-06-23T04:28:06.244Z,12.57
2023-06-23T04:31:09.837Z,12.07
2023-06-23T04:34:12.208Z,14.30
2023-06-23T04:40:27.366Z,12.95
2023-06-23T04:43:33.242Z,16.23
2023-06-23T04:46:38.061Z,13.05
2023-06-23T04:49:40.873Z,18.08
2023-06-23T04:52:47.848Z,13.57
2023-06-23T04:55:54.927Z,14.50
2023-06-23T04:58:58.480Z,13.95
2023-06-23T05:02:03.649Z,34.50
2023-06-23T05:05:08.357Z,19.98
2023-06-23T05:08:11.919Z,13.82
2023-06-23T05:11:15.272Z,19.30
2023-06-23T05:14:18.171Z,18.45
2023-06-23T05:17:21.911Z,15.65
2023-06-23T05:20:24.923Z,12.35
2023-06-23T05:23:29.547Z,14.82
2023-06-23T05:26:35.392Z,12.43
2023-06-23T05:29:40.963Z,15.48
2023-06-23T05:32:44.234Z,15.23
2023-06-23T05:35:48.981Z,16.02
2023-06-23T05:38:53.770Z,13.63
2023-06-23T05:41:56.401Z,17.23
2023-06-23T05:44:58.639Z,12.80
2023-06-23T05:48:04.132Z,15.30
2023-06-23T05:51:08.760Z,14.40
2023-06-23T05:54:12.279Z,15.27
2023-06-23T05:57:30.212Z,18.50
2023-06-23T06:00:37.669Z,17.83
2023-06-23T06:04:07.687Z,22.30
2023-06-23T06:07:11.358Z,18.65
2023-06-23T06:10:14.128Z,13.88
2023-06-23T06:13:18.325Z,14.45
2023-06-23T06:16:21.184Z,14.30
2023-06-23T06:19:25.449Z,20.25
2023-06-23T06:22:28.063Z,14.32
2023-06-23T06:25:31.252Z,15.38
2023-06-23T06:28:34.799Z,21.05
2023-06-23T06:31:37.869Z,19.13
2023-06-23T06:34:41.826Z,16.90
2023-06-23T06:37:48.923Z,12.85
2023-06-23T06:40:54.588Z,15.13
2023-06-23T06:43:58.395Z,14.65
2023-06-23T06:47:02.806Z,24.40
2023-06-23T06:50:05.686Z,17.77
2023-06-23T06:53:08.743Z,18.27
2023-06-23T06:56:11.436Z,17.92
2023-06-23T06:59:14.009Z,16.50
2023-06-23T07:02:16.996Z,15.07
2023-06-23T07:05:19.251Z,18.08
2023-06-23T07:08:21.517Z,13.88
2023-06-23T07:11:23.820Z,14.57
2023-06-23T07:14:26.311Z,15.32
2023-06-23T07:17:29.057Z,18.88
2023-06-23T07:20:31.620Z,13.65
2023-06-23T07:23:34.169Z,18.60
2023-06-23T07:26:38.461Z,18.20
2023-06-23T07:29:40.705Z,18.63
2023-06-23T07:32:46.784Z,17.27
2023-06-23T07:35:49.146Z,22.98
2023-06-23T07:38:51.376Z,17.17
2023-06-23T07:41:53.633Z,17.10
2023-06-23T07:44:55.884Z,13.73
2023-06-23T07:47:58.187Z,16.05
2023-06-23T07:51:00.473Z,15.68
2023-06-23T07:54:07.524Z,22.70
2023-06-23T07:57:11.180Z,18.40
2023-06-23T08:00:14.100Z,16.73
2023-06-23T08:03:16.498Z,18.30
2023-06-23T08:06:24.537Z,16.55
2023-06-23T08:12:29.103Z,21.50
2023-06-23T08:15:31.565Z,17.20
2023-06-23T08:18:34.022Z,16.20
2023-06-23T08:21:36.841Z,19.25
2023-06-23T08:24:39.212Z,22.50
2023-06-23T08:27:41.545Z,16.30
2023-06-23T08:30:43.928Z,18.48
2023-06-23T08:33:46.413Z,18.63
2023-06-23T08:36:48.681Z,20.13
2023-06-23T08:39:50.947Z,16.60
2023-06-23T08:42:54.002Z,23.45
2023-06-23T08:46:00.238Z,18.10
2023-06-23T08:49:06.411Z,16.58
2023-06-23T08:52:12.617Z,17.55
2023-06-23T08:55:15.891Z,18.48
2023-06-23T08:58:20.263Z,18.63
2023-06-23T09:01:23.014Z,19.02
2023-06-23T09:04:26.416Z,14.50
2023-06-23T09:07:29.746Z,19.63
2023-06-23T09:10:32.345Z,19.48
2023-06-23T09:13:40.249Z,17.88
2023-06-23T09:16:42.863Z,17.50
2023-06-23T09:19:48.306Z,17.50
2023-06-23T09:22:50.852Z,20.65
2023-06-23T09:25:57.260Z,17.88
2023-06-23T09:29:16.610Z,19.23
2023-06-23T09:32:29.404Z,19.90
2023-06-23T09:35:32.313Z,20.35
2023-06-23T09:38:39.633Z,21.20
2023-06-23T09:41:56.272Z,19.52
2023-06-23T09:44:58.582Z,20.38
2023-06-23T09:48:00.989Z,23.63
2023-06-23T09:51:05.079Z,24.23
2023-06-23T09:54:07.513Z,23.67
2023-06-23T09:57:13.790Z,19.33
2023-06-23T10:00:17.091Z,19.23
2023-06-23T10:03:19.800Z,23.23
2023-06-23T10:06:26.886Z,22.55
2023-06-23T10:09:29.157Z,19.17
2023-06-23T10:15:33.678Z,21.42
2023-06-23T10:18:35.989Z,16.95
2023-06-23T10:21:40.215Z,26.05
2023-06-23T10:24:52.851Z,19.30
2023-06-23T10:27:57.041Z,16.75
2023-06-23T10:30:59.966Z,19.60
2023-06-23T10:34:06.267Z,22.35
2023-06-23T10:37:12.048Z,21.33
2023-06-23T10:40:20.995Z,20.35
2023-06-23T10:43:25.614Z,16.80
2023-06-23T10:46:28.096Z,19.17
2023-06-23T10:49:30.427Z,16.83
2023-06-23T10:55:37.845Z,16.05
2023-06-23T10:58:51.337Z,18.48
2023-06-23T11:02:08.156Z,22.83
2023-06-23T11:05:17.002Z,22.38
2023-06-23T11:08:19.372Z,22.30
2023-06-23T11:14:44.000Z,23.50
2023-06-23T11:17:47.426Z,19.80
2023-06-23T11:20:50.510Z,22.73
2023-06-23T11:24:10.752Z,22.45
2023-06-23T11:27:13.045Z,24.08
2023-06-23T11:33:30.564Z,24.23
2023-06-23T11:36:33.723Z,20.70
2023-06-23T11:39:36.375Z,23.00
2023-06-23T11:42:45.709Z,20.77
2023-06-23T11:45:57.978Z,20.40
2023-06-23T11:49:09.597Z,20.90
2023-06-23T11:52:13.147Z,21.77
2023-06-23T11:55:15.409Z,18.50
2023-06-23T11:58:18.694Z,19.80
2023-06-23T12:01:21.014Z,21.45
2023-06-23T12:04:23.623Z,18.00
2023-06-23T12:07:29.860Z,20.08
2023-06-23T12:10:39.023Z,19.27
2023-06-23T12:13:42.165Z,25.15
2023-06-23T12:16:44.668Z,17.42
2023-06-23T12:19:47.221Z,19.58
2023-06-23T12:22:50.958Z,20.92
2023-06-23T12:25:54.587Z,20.10
2023-06-23T12:29:09.434Z,20.08
2023-06-23T12:32:11.941Z,20.52
2023-06-23T12:35:19.710Z,18.00
2023-06-23T12:38:23.851Z,19.33
2023-06-23T12:41:29.185Z,19.75
2023-06-23T12:44:33.009Z,18.50
2023-06-23T12:47:35.447Z,17.65
2023-06-23T12:50:42.072Z,20.35
2023-06-23T12:53:44.731Z,21.13
2023-06-23T12:56:46.995Z,17.30
2023-06-23T12:59:49.198Z,19.92
2023-06-23T13:02:54.083Z,21.67
2023-06-23T13:05:57.337Z,18.25
2023-06-23T13:09:00.605Z,22.17
2023-06-23T13:12:02.943Z,17.98
2023-06-23T13:15:06.113Z,19.95
2023-06-23T13:18:08.563Z,20.52
2023-06-23T13:21:10.822Z,16.55
2023-06-23T13:24:13.150Z,20.73
2023-06-23T13:27:15.726Z,22.23
2023-06-23T13:30:18.067Z,18.75
2023-06-23T13:33:23.232Z,22.13
2023-06-23T13:36:25.631Z,22.65
2023-06-23T13:39:28.026Z,17.70
2023-06-23T13:42:31.003Z,24.48
2023-06-23T13:45:33.548Z,20.42
2023-06-23T13:48:35.968Z,18.65
2023-06-23T13:51:38.578Z,21.55
2023-06-23T13:54:40.854Z,23.23
2023-06-23T13:57:45.876Z,16.75
2023-06-23T14:00:48.905Z,19.20
2023-06-23T14:03:53.150Z,18.13
2023-06-23T14:06:55.523Z,23.42
2023-06-23T14:09:57.960Z,18.50
2023-06-23T14:13:00.225Z,15.10
2023-06-23T14:16:04.844Z,12.88
2023-06-23T14:19:07.625Z,11.98
2023-06-23T14:22:09.949Z,15.60
2023-06-23T14:25:12.179Z,18.02
2023-06-23T14:28:14.411Z,15.43
2023-06-23T14:31:16.747Z,17.75
2023-06-23T14:34:19.105Z,19.67
2023-06-23T14:37:21.335Z,16.70
2023-06-23T14:40:23.641Z,10.68
2023-06-23T14:43:26.258Z,13.13
2023-06-23T14:46:28.513Z,12.80
2023-06-23T14:49:30.797Z,13.02
2023-06-23T14:52:33.346Z,11.25
2023-06-23T14:55:36.895Z,11.68
2023-06-23T14:58:39.653Z,11.07
2023-06-23T15:01:42.040Z,10.98
2023-06-23T15:04:44.305Z,10.60
2023-06-23T15:07:46.611Z,15.68
2023-06-23T15:10:55.033Z,11.88
2023-06-23T15:17:00.130Z,9.85
2023-06-23T15:20:02.499Z,14.57
2023-06-23T15:23:04.929Z,12.45
2023-06-23T15:26:07.385Z,11.60
2023-06-23T15:29:09.729Z,12.15
2023-06-23T15:32:12.068Z,10.82
2023-06-23T15:35:14.381Z,8.85
2023-06-23T15:38:16.840Z,10.68
2023-06-23T15:41:19.132Z,9.32
2023-06-23T15:47:23.539Z,9.45
2023-06-23T15:50:25.802Z,11.23
2023-06-23T15:56:30.231Z,10.52
2023-06-23T15:59:32.535Z,14.48
2023-06-23T16:02:34.854Z,8.23
2023-06-23T16:05:38.861Z,9.20
2023-06-23T16:08:44.084Z,10.23
2023-06-23T16:11:46.360Z,11.38
2023-06-23T16:14:48.648Z,7.63
2023-06-23T16:17:53.312Z,8.38
2023-06-23T16:20:55.617Z,7.28
2023-06-23T16:23:57.849Z,12.05
2023-06-23T16:27:00.188Z,16.60
2023-06-23T16:30:03.334Z,13.20
2023-06-23T16:33:05.768Z,8.75
2023-06-23T16:36:08.101Z,11.23
2023-06-23T16:39:10.419Z,6.18
2023-06-23T16:45:15.197Z,7.15
2023-06-23T16:48:17.439Z,5.45
2023-06-23T16:54:39.384Z,5.00
2023-06-23T16:57:43.480Z,6.95
2023-06-23T17:00:45.740Z,6.95
2023-06-23T17:03:48.127Z,5.60
2023-06-23T17:06:50.545Z,4.03
2023-06-23T17:09:52.955Z,4.93
2023-06-23T17:12:55.281Z,5.95
2023-06-23T17:15:57.649Z,4.38
2023-06-23T17:19:03.572Z,11.23
2023-06-23T17:22:06.171Z,10.57
2023-06-23T17:28:42.283Z,8.95
2023-06-23T17:31:46.389Z,4.60
2023-06-23T17:34:50.152Z,9.95
2023-06-23T17:40:54.433Z,5.35
2023-06-23T17:46:59.152Z,6.55
2023-06-23T17:50:01.456Z,7.20
2023-06-23T17:56:06.826Z,3.50
2023-06-23T17:59:10.629Z,8.80
2023-06-23T18:02:16.341Z,7.32
2023-06-23T18:05:20.698Z,8.50
2023-06-23T18:08:23.014Z,7.82
2023-06-23T18:14:27.484Z,8.27
2023-06-23T18:17:31.012Z,10.75
2023-06-23T18:20:33.838Z,9.02
2023-06-23T18:23:36.320Z,8.82
2023-06-23T18:26:38.559Z,11.60
2023-06-23T18:29:40.834Z,6.20
2023-06-23T18:32:43.119Z,4.07
2023-06-23T18:38:47.457Z,8.68
2023-06-23T18:44:52.789Z,3.38
2023-06-23T18:47:55.026Z,9.88
2023-06-23T18:50:57.260Z,6.57
2023-06-23T18:53:59.496Z,4.00
2023-06-23T18:57:02.090Z,4.00
2023-06-23T19:00:06.863Z,4.93
2023-06-23T19:03:09.448Z,4.80
2023-06-23T19:06:13.785Z,5.30
2023-06-23T19:09:16.529Z,5.63
2023-06-23T19:12:18.836Z,6.50
2023-06-23T19:15:21.081Z,6.78
2023-06-23T19:18:23.340Z,3.03
2023-06-23T19:21:25.728Z,5.63
2023-06-23T19:24:28.114Z,4.38
2023-06-23T19:30:32.817Z,4.97
2023-06-23T19:33:35.754Z,5.05
2023-06-23T19:39:51.156Z,8.52
2023-06-23T19:46:04.251Z,5.13
2023-06-23T19:52:08.714Z,6.65
2023-06-23T19:55:11.708Z,11.60
2023-06-23T19:58:20.141Z,7.15
2023-06-23T20:01:22.540Z,11.45
2023-06-23T20:04:25.018Z,7.18
2023-06-23T20:07:27.392Z,7.07
2023-06-23T20:10:29.790Z,9.43
2023-06-23T20:13:32.966Z,6.50
2023-06-23T20:16:35.276Z,15.52
2023-06-23T20:19:37.790Z,9.93
2023-06-23T20:22:40.173Z,5.38
2023-06-23T20:28:45.889Z,5.53
2023-06-23T20:31:48.197Z,6.85
2023-06-23T20:34:50.621Z,5.40
2023-06-23T20:40:55.592Z,6.38
2023-06-23T20:43:57.853Z,5.90
2023-06-23T20:47:00.324Z,8.27
2023-06-23T20:50:02.766Z,7.80
2023-06-23T20:56:07.162Z,6.32
2023-06-23T20:59:09.520Z,6.35
2023-06-23T21:02:11.828Z,5.80
2023-06-23T21:05:14.258Z,7.05
2023-06-23T21:08:17.317Z,5.38
2023-06-23T21:11:19.632Z,8.35
2023-06-23T21:14:21.925Z,9.40
2023-06-23T21:17:24.300Z,5.55
2023-06-23T21:20:27.386Z,5.13
2023-06-23T21:23:31.381Z,10.15
2023-06-23T21:29:38.858Z,6.18
2023-06-23T21:32:41.242Z,7.05
2023-06-23T21:35:44.186Z,10.25
2023-06-23T21:38:46.540Z,6.18
2023-06-23T21:41:48.919Z,7.82
2023-06-23T21:44:51.333Z,5.65
2023-06-23T21:47:53.601Z,4.53
2023-06-23T21:50:55.953Z,6.15
2023-06-23T21:53:58.167Z,6.65
2023-06-23T21:57:01.252Z,7.10
2023-06-23T22:00:04.430Z,5.85
2023-06-23T22:03:15.909Z,5.93
2023-06-23T22:09:20.290Z,4.70
2023-06-23T22:12:22.547Z,5.65
2023-06-23T22:15:24.831Z,6.82
2023-06-23T22:21:32.725Z,7.20
2023-06-23T22:24:35.045Z,4.47
2023-06-23T22:27:37.297Z,4.15
2023-06-23T22:30:39.636Z,4.38
2023-06-23T22:33:41.911Z,6.18
2023-06-23T22:36:44.301Z,5.05
2023-06-23T22:39:46.567Z,5.10
2023-06-23T22:42:48.799Z,5.38
2023-06-23T22:45:51.114Z,6.32
2023-06-23T22:48:57.193Z,6.90
2023-06-23T22:51:59.781Z,6.13
2023-06-23T22:55:02.041Z,8.73
2023-06-23T22:58:04.383Z,8.98
2023-06-23T23:01:06.717Z,5.55
2023-06-23T23:04:10.283Z,6.45
2023-06-23T23:07:14.030Z,5.40
2023-06-23T23:10:16.425Z,6.57
2023-06-23T23:13:18.694Z,6.07
2023-06-23T23:16:26.514Z,5.78
2023-06-23T23:19:30.177Z,6.97
2023-06-23T23:22:32.481Z,5.60
2023-06-23T23:25:35.040Z,7.53
2023-06-23T23:31:43.649Z,5.75
2023-06-23T23:34:45.910Z,5.25
2023-06-23T23:37:48.182Z,5.93
2023-06-23T23:40:50.518Z,5.13
2023-06-23T23:43:54.321Z,7.35
2023-06-23T23:46:56.687Z,5.68
2023-06-23T23:49:58.972Z,8.65
2023-06-23T23:53:02.564Z,6.90
2023-06-23T23:56:05.351Z,8.15
